createdAt,value
2022-10-02T00:05:02.565Z,13.33
2022-10-02T00:10:14.421Z,13.23
2022-10-02T00:15:25.800Z,13.26
2022-10-02T00:21:16.549Z,13.31
2022-10-02T00:26:31.209Z,13.30
2022-10-02T00:31:58.709Z,13.41
2022-10-02T00:37:08.246Z,13.28
2022-10-02T00:42:21.876Z,13.21
2022-10-02T00:47:43.652Z,13.28
2022-10-02T00:53:06.116Z,13.25
2022-10-02T00:58:32.438Z,13.12
2022-10-02T01:03:42.243Z,13.19
2022-10-02T01:08:43.830Z,13.27
2022-10-02T01:13:46.040Z,13.29
2022-10-02T01:18:48.160Z,13.22
2022-10-02T01:24:04.755Z,13.04
2022-10-02T01:29:06.361Z,13.20
2022-10-02T01:34:08.786Z,13.35
2022-10-02T01:39:11.421Z,12.99
2022-10-02T01:44:14.758Z,12.93
2022-10-02T01:49:34.952Z,13.03
2022-10-02T01:55:01.530Z,12.89
2022-10-02T02:00:25.548Z,12.94
2022-10-02T02:05:32.404Z,13.01
2022-10-02T02:10:44.995Z,12.95
2022-10-02T02:16:06.631Z,13.01
2022-10-02T02:21:36.783Z,13.10
2022-10-02T02:26:39.465Z,12.91
2022-10-02T02:31:49.121Z,13.03
2022-10-02T02:36:57.355Z,13.02
2022-10-02T02:42:04.854Z,13.01
2022-10-02T02:47:12.818Z,13.09
2022-10-02T02:52:20.931Z,13.02
2022-10-02T02:57:31.853Z,13.11
2022-10-02T03:02:33.800Z,13.06
2022-10-02T03:07:35.455Z,12.93
2022-10-02T03:12:53.549Z,12.58
2022-10-02T03:18:18.400Z,12.46
2022-10-02T03:23:37.467Z,12.33
2022-10-02T03:28:57.146Z,12.31
2022-10-02T03:34:01.380Z,12.30
2022-10-02T03:39:24.120Z,12.34
2022-10-02T03:44:26.138Z,12.43
2022-10-02T03:49:27.718Z,12.35
2022-10-02T03:54:33.964Z,12.44
2022-10-02T03:59:44.800Z,12.58
2022-10-02T04:04:55.996Z,12.58
2022-10-02T04:10:03.967Z,12.52
2022-10-02T04:15:16.184Z,12.40
2022-10-02T04:20:26.275Z,12.36
2022-10-02T04:25:32.567Z,12.34
2022-10-02T04:30:34.189Z,12.48
2022-10-02T04:35:48.020Z,12.57
2022-10-02T04:41:12.006Z,12.44
2022-10-02T04:46:25.759Z,12.48
2022-10-02T04:51:40.496Z,12.42
2022-10-02T04:57:12.096Z,12.37
2022-10-02T05:02:32.053Z,12.65
2022-10-02T05:07:48.777Z,12.60
2022-10-02T05:12:52.955Z,12.46
2022-10-02T05:18:17.115Z,12.59
2022-10-02T05:24:17.391Z,12.55
2022-10-02T05:29:27.817Z,12.57
2022-10-02T05:34:55.515Z,12.61
2022-10-02T05:40:52.595Z,12.76
2022-10-02T05:46:02.649Z,12.75
2022-10-02T05:51:16.466Z,12.95
2022-10-02T05:56:29.287Z,13.09
2022-10-02T06:01:36.320Z,13.14
2022-10-02T06:06:49.142Z,13.32
2022-10-02T06:12:12.516Z,13.33
2022-10-02T06:17:22.436Z,13.35
2022-10-02T06:22:33.403Z,13.26
2022-10-02T06:27:46.964Z,13.25
2022-10-02T06:33:13.739Z,13.41
2022-10-02T06:38:33.760Z,13.54
2022-10-02T06:44:13.569Z,13.71
2022-10-02T06:49:33.204Z,13.98
2022-10-02T06:54:48.808Z,14.02
2022-10-02T07:00:14.598Z,14.08
2022-10-02T07:05:48.153Z,14.16
2022-10-02T07:11:34.913Z,14.54
2022-10-02T07:17:08.612Z,14.67
2022-10-02T07:22:45.073Z,14.61
2022-10-02T07:28:03.220Z,14.81
2022-10-02T07:33:26.569Z,15.22
2022-10-02T07:38:48.895Z,15.52
2022-10-02T07:44:02.128Z,15.47
2022-10-02T07:49:24.702Z,15.86
2022-10-02T07:55:13.688Z,15.80
2022-10-02T08:00:16.975Z,15.90
2022-10-02T08:05:19.855Z,15.51
2022-10-02T08:10:26.643Z,15.01
2022-10-02T08:15:34.931Z,15.05
2022-10-02T08:20:40.805Z,15.13
2022-10-02T08:25:55.378Z,15.25
2022-10-02T08:30:58.047Z,15.51
2022-10-02T08:36:17.028Z,15.48
2022-10-02T08:41:30.650Z,15.45
2022-10-02T08:47:03.143Z,15.54
2022-10-02T08:52:39.336Z,15.91
2022-10-02T08:58:01.934Z,16.00
2022-10-02T09:03:09.586Z,16.22
2022-10-02T09:08:29.979Z,16.58
2022-10-02T09:13:56.519Z,16.90
2022-10-02T09:19:03.117Z,16.86
2022-10-02T09:24:07.666Z,17.35
2022-10-02T09:29:34.638Z,17.11
2022-10-02T09:35:06.877Z,17.13
2022-10-02T09:40:26.910Z,17.06
2022-10-02T09:45:40.199Z,16.79
2022-10-02T09:50:49.909Z,16.71
2022-10-02T09:56:26.770Z,16.85
2022-10-02T10:02:05.619Z,16.99
2022-10-02T10:07:15.402Z,17.47
2022-10-02T10:12:35.872Z,17.58
2022-10-02T10:18:05.097Z,17.47
2022-10-02T10:23:31.716Z,17.51
2022-10-02T10:29:07.718Z,17.94
2022-10-02T10:34:21.257Z,17.74
2022-10-02T10:39:31.510Z,17.42
2022-10-02T10:45:08.274Z,17.60
2022-10-02T10:50:46.473Z,17.36
2022-10-02T10:56:28.188Z,17.09
2022-10-02T11:01:58.677Z,17.23
2022-10-02T11:07:57.054Z,17.11
2022-10-02T11:13:14.617Z,16.99
2022-10-02T11:18:46.063Z,17.14
2022-10-02T11:24:35.249Z,17.28
2022-10-02T11:30:15.550Z,17.37
2022-10-02T11:35:23.445Z,17.57
2022-10-02T11:40:44.401Z,17.65
2022-10-02T11:46:23.512Z,17.74
2022-10-02T11:51:55.348Z,17.55
2022-10-02T11:57:08.838Z,17.64
2022-10-02T12:02:42.837Z,17.32
2022-10-02T12:08:03.664Z,17.31
2022-10-02T12:13:24.656Z,17.25
2022-10-02T12:18:32.299Z,17.05
2022-10-02T12:24:19.196Z,16.86
2022-10-02T12:29:51.025Z,16.63
2022-10-02T12:35:26.344Z,16.12
2022-10-02T12:40:57.236Z,15.78
2022-10-02T12:46:34.113Z,15.42
2022-10-02T12:51:57.844Z,15.06
2022-10-02T12:57:51.915Z,14.94
2022-10-02T13:03:41.699Z,14.91
2022-10-02T13:08:43.508Z,14.93
2022-10-02T13:14:42.612Z,14.84
2022-10-02T13:19:49.762Z,14.86
2022-10-02T13:24:58.409Z,15.18
2022-10-02T13:30:06.638Z,15.21
2022-10-02T13:35:46.729Z,15.26
2022-10-02T13:41:13.265Z,15.55
2022-10-02T13:46:54.272Z,15.52
2022-10-02T13:52:09.230Z,15.67
2022-10-02T13:57:35.950Z,15.87
2022-10-02T14:02:40.216Z,15.89
2022-10-02T14:07:44.728Z,15.88
2022-10-02T14:13:10.503Z,15.95
2022-10-02T14:18:21.112Z,16.09
2022-10-02T14:23:47.879Z,16.13
2022-10-02T14:29:08.394Z,15.99
2022-10-02T14:34:19.340Z,16.08
2022-10-02T14:39:31.975Z,16.24
2022-10-02T14:44:56.965Z,16.50
2022-10-02T14:50:36.392Z,16.52
2022-10-02T14:55:41.663Z,16.60
2022-10-02T15:01:01.382Z,16.56
2022-10-02T15:06:08.758Z,16.42
2022-10-02T15:11:27.627Z,16.35
2022-10-02T15:17:04.260Z,16.20
2022-10-02T15:22:19.876Z,16.11
2022-10-02T15:27:42.614Z,15.30
2022-10-02T15:33:03.482Z,15.39
2022-10-02T15:38:41.686Z,15.16
2022-10-02T15:44:00.771Z,15.00
2022-10-02T15:49:18.041Z,15.05
2022-10-02T15:54:44.912Z,14.91
2022-10-02T15:59:52.466Z,14.75
2022-10-02T16:05:13.661Z,14.60
2022-10-02T16:10:21.034Z,14.58
2022-10-02T16:15:31.677Z,14.63
2022-10-02T16:20:48.880Z,14.53
2022-10-02T16:26:24.035Z,14.45
2022-10-02T16:31:48.366Z,14.39
2022-10-02T16:36:55.069Z,14.38
2022-10-02T16:42:02.481Z,14.28
2022-10-02T16:47:18.013Z,13.92
2022-10-02T16:52:47.358Z,14.01
2022-10-02T16:58:19.624Z,13.90
2022-10-02T17:03:28.972Z,13.91
2022-10-02T17:08:45.917Z,13.64
2022-10-02T17:14:14.862Z,13.69
2022-10-02T17:19:31.445Z,13.69
2022-10-02T17:24:40.939Z,13.52
2022-10-02T17:29:53.000Z,13.31
2022-10-02T17:34:58.930Z,13.24
2022-10-02T17:40:24.685Z,13.24
2022-10-02T17:45:42.958Z,13.17
2022-10-02T17:51:24.506Z,13.13
2022-10-02T17:56:51.679Z,13.04
2022-10-02T18:02:12.228Z,13.03
2022-10-02T18:07:16.695Z,12.96
2022-10-02T18:12:42.303Z,12.83
2022-10-02T18:17:50.214Z,12.92
2022-10-02T18:23:03.576Z,13.09
2022-10-02T18:28:31.186Z,12.97
2022-10-02T18:33:40.479Z,12.90
2022-10-02T18:38:49.540Z,12.88
2022-10-02T18:43:51.012Z,12.95
2022-10-02T18:49:20.926Z,12.95
2022-10-02T18:54:59.791Z,12.89
2022-10-02T19:00:19.120Z,12.92
2022-10-02T19:05:27.254Z,12.90
2022-10-02T19:10:31.529Z,12.95
2022-10-02T19:15:33.391Z,12.97
2022-10-02T19:20:48.248Z,12.99
2022-10-02T19:25:52.534Z,12.86
2022-10-02T19:31:03.902Z,12.91
2022-10-02T19:36:06.323Z,12.91
2022-10-02T19:41:15.381Z,12.97
2022-10-02T19:46:17.274Z,12.94
2022-10-02T19:51:21.214Z,12.82
2022-10-02T19:56:53.441Z,12.86
2022-10-02T20:02:00.308Z,12.82
2022-10-02T20:07:02.203Z,12.60
2022-10-02T20:12:28.563Z,12.57
2022-10-02T20:17:31.326Z,12.59
2022-10-02T20:22:41.789Z,12.44
2022-10-02T20:27:52.653Z,12.46
2022-10-02T20:33:01.766Z,12.42
2022-10-02T20:38:16.196Z,12.47
2022-10-02T20:43:46.956Z,12.47
2022-10-02T20:49:08.958Z,12.43
2022-10-02T20:54:23.547Z,12.35
2022-10-02T21:00:03.298Z,12.51
2022-10-02T21:05:40.049Z,12.34
2022-10-02T21:11:00.016Z,12.29
2022-10-02T21:16:16.604Z,12.37
2022-10-02T21:21:55.902Z,12.19
2022-10-02T21:27:13.049Z,12.18
2022-10-02T21:32:32.657Z,12.08
2022-10-02T21:38:05.104Z,11.89
2022-10-02T21:43:37.160Z,11.96
2022-10-02T21:49:15.761Z,11.77
2022-10-02T21:54:54.593Z,11.86
2022-10-02T21:59:56.076Z,11.91
2022-10-02T22:05:22.394Z,12.01
2022-10-02T22:11:16.704Z,11.77
2022-10-02T22:16:45.436Z,12.17
2022-10-02T22:22:15.764Z,12.10
2022-10-02T22:27:42.251Z,12.17
2022-10-02T22:33:26.597Z,12.09
2022-10-02T22:38:43.581Z,12.12
2022-10-02T22:43:48.320Z,11.90
2022-10-02T22:49:27.223Z,12.08
2022-10-02T22:54:51.560Z,12.36
2022-10-02T23:00:03.740Z,12.24
2022-10-02T23:05:14.278Z,12.27
2022-10-02T23:10:33.191Z,12.38
2022-10-02T23:16:07.980Z,12.43
2022-10-02T23:21:33.321Z,12.29
2022-10-02T23:26:56.252Z,12.21
2022-10-02T23:32:19.085Z,12.58
2022-10-02T23:37:39.810Z,12.56
2022-10-02T23:43:04.946Z,12.46
2022-10-02T23:48:11.857Z,12.54
2022-10-02T23:53:54.348Z,12.34
2022-10-02T23:59:26.204Z,12.41
